sensor_id;sensor_type;location;lat;lon;timestamp;pressure;altitude;pressure_sealevel;temperature;humidity
75312;BME280;63906;55.686;37.532;2023-02-26T00:00:17;97134.38;;;1.80;83.25
75312;BME280;63906;55.686;37.532;2023-02-26T00:05:20;97116.38;;;1.66;83.56
75312;BME280;63906;55.686;37.532;2023-02-26T00:10:21;97085.19;;;1.39;84.79
75312;BME280;63906;55.686;37.532;2023-02-26T00:15:22;97089.44;;;1.67;84.50
75312;BME280;63906;55.686;37.532;2023-02-26T00:20:23;97082.44;;;1.60;84.03
75312;BME280;63906;55.686;37.532;2023-02-26T00:25:23;97060.69;;;1.48;84.37
75312;BME280;63906;55.686;37.532;2023-02-26T00:30:24;97030.06;;;1.11;84.90
75312;BME280;63906;55.686;37.532;2023-02-26T00:35:25;97035.72;;;1.34;84.97
75312;BME280;63906;55.686;37.532;2023-02-26T00:45:29;96987.28;;;1.28;84.56
75312;BME280;63906;55.686;37.532;2023-02-26T00:50:32;96975.81;;;0.96;85.10
75312;BME280;63906;55.686;37.532;2023-02-26T00:55:33;97024.78;;;0.84;85.76
75312;BME280;63906;55.686;37.532;2023-02-26T01:00:33;97017.91;;;0.63;86.58
75312;BME280;63906;55.686;37.532;2023-02-26T01:05:34;97009.53;;;0.68;86.78
75312;BME280;63906;55.686;37.532;2023-02-26T01:10:35;97001.00;;;0.74;85.74
75312;BME280;63906;55.686;37.532;2023-02-26T01:15:35;97004.22;;;0.76;86.66
75312;BME280;63906;55.686;37.532;2023-02-26T01:20:47;96977.72;;;0.74;86.47
75312;BME280;63906;55.686;37.532;2023-02-26T01:25:49;96979.50;;;0.73;87.37
75312;BME280;63906;55.686;37.532;2023-02-26T01:30:53;96944.69;;;0.76;86.73
75312;BME280;63906;55.686;37.532;2023-02-26T01:35:57;96966.84;;;0.98;86.46
75312;BME280;63906;55.686;37.532;2023-02-26T01:47:03;96953.50;;;0.88;86.71
75312;BME280;63906;55.686;37.532;2023-02-26T01:57:26;96945.13;;;0.93;86.56
75312;BME280;63906;55.686;37.532;2023-02-26T02:02:27;96930.78;;;0.90;86.22
75312;BME280;63906;55.686;37.532;2023-02-26T02:07:28;96903.09;;;0.97;86.14
75312;BME280;63906;55.686;37.532;2023-02-26T02:23:44;96894.34;;;0.98;86.75
75312;BME280;63906;55.686;37.532;2023-02-26T02:29:23;96919.44;;;1.04;86.11
75312;BME280;63906;55.686;37.532;2023-02-26T02:34:48;96885.59;;;0.38;87.36
75312;BME280;63906;55.686;37.532;2023-02-26T02:39:56;96894.34;;;0.37;87.30
75312;BME280;63906;55.686;37.532;2023-02-26T02:45:22;96893.78;;;0.48;87.20
75312;BME280;63906;55.686;37.532;2023-02-26T02:50:35;96902.31;;;0.42;87.66
75312;BME280;63906;55.686;37.532;2023-02-26T02:55:42;96883.22;;;0.43;88.11
75312;BME280;63906;55.686;37.532;2023-02-26T03:00:49;96881.41;;;0.37;88.22
75312;BME280;63906;55.686;37.532;2023-02-26T03:05:50;96861.13;;;0.41;88.94
75312;BME280;63906;55.686;37.532;2023-02-26T03:10:51;96877.75;;;0.73;88.19
75312;BME280;63906;55.686;37.532;2023-02-26T03:21:58;96876.19;;;0.92;87.75
75312;BME280;63906;55.686;37.532;2023-02-26T03:33:02;96882.81;;;1.07;87.08
75312;BME280;63906;55.686;37.532;2023-02-26T03:38:08;96881.78;;;0.95;86.54
75312;BME280;63906;55.686;37.532;2023-02-26T03:43:18;96854.22;;;0.68;86.87
75312;BME280;63906;55.686;37.532;2023-02-26T03:48:24;96869.84;;;0.88;86.65
75312;BME280;63906;55.686;37.532;2023-02-26T03:53:40;96890.94;;;0.91;87.46
75312;BME280;63906;55.686;37.532;2023-02-26T03:58:43;96877.75;;;0.73;87.43
75312;BME280;63906;55.686;37.532;2023-02-26T04:03:50;96913.31;;;1.19;86.68
75312;BME280;63906;55.686;37.532;2023-02-26T04:08:54;96908.31;;;1.24;86.46
75312;BME280;63906;55.686;37.532;2023-02-26T04:13:54;96901.97;;;1.33;86.84
75312;BME280;63906;55.686;37.532;2023-02-26T04:18:55;96938.06;;;1.48;85.87
75312;BME280;63906;55.686;37.532;2023-02-26T04:23:56;96932.88;;;1.54;86.65
75312;BME280;63906;55.686;37.532;2023-02-26T04:28:56;96943.25;;;1.61;86.26
75312;BME280;63906;55.686;37.532;2023-02-26T04:33:57;96954.44;;;1.81;86.94
75312;BME280;63906;55.686;37.532;2023-02-26T04:38:57;96942.44;;;1.74;85.64
75312;BME280;63906;55.686;37.532;2023-02-26T04:43:58;96977.56;;;1.76;86.17
75312;BME280;63906;55.686;37.532;2023-02-26T04:48:58;96973.19;;;1.64;86.07
75312;BME280;63906;55.686;37.532;2023-02-26T04:53:59;96939.25;;;1.45;86.03
75312;BME280;63906;55.686;37.532;2023-02-26T04:59:00;96974.34;;;1.61;85.62
75312;BME280;63906;55.686;37.532;2023-02-26T05:04:00;97009.50;;;1.70;85.96
75312;BME280;63906;55.686;37.532;2023-02-26T05:09:01;97031.03;;;1.71;86.29
75312;BME280;63906;55.686;37.532;2023-02-26T05:14:02;97032.63;;;1.72;85.56
75312;BME280;63906;55.686;37.532;2023-02-26T05:19:02;97033.38;;;1.52;85.37
75312;BME280;63906;55.686;37.532;2023-02-26T05:24:03;97029.03;;;1.73;85.21
75312;BME280;63906;55.686;37.532;2023-02-26T05:29:04;97043.78;;;1.66;84.78
75312;BME280;63906;55.686;37.532;2023-02-26T05:34:04;97057.13;;;1.56;84.86
75312;BME280;63906;55.686;37.532;2023-02-26T05:39:05;97070.09;;;1.63;84.37
75312;BME280;63906;55.686;37.532;2023-02-26T05:44:05;97067.31;;;1.57;84.29
75312;BME280;63906;55.686;37.532;2023-02-26T05:49:07;97077.25;;;1.60;83.52
75312;BME280;63906;55.686;37.532;2023-02-26T05:54:09;97075.44;;;1.54;84.63
75312;BME280;63906;55.686;37.532;2023-02-26T05:59:10;97079.69;;;1.62;83.71
75312;BME280;63906;55.686;37.532;2023-02-26T06:04:10;97102.06;;;1.83;83.94
75312;BME280;63906;55.686;37.532;2023-02-26T06:09:10;97101.25;;;1.76;84.13
75312;BME280;63906;55.686;37.532;2023-02-26T06:14:11;97132.66;;;2.07;83.57
75312;BME280;63906;55.686;37.532;2023-02-26T06:19:12;97131.44;;;2.03;83.14
75312;BME280;63906;55.686;37.532;2023-02-26T06:24:12;97123.00;;;1.75;80.62
75312;BME280;63906;55.686;37.532;2023-02-26T06:29:13;97146.84;;;2.31;82.88
75312;BME280;63906;55.686;37.532;2023-02-26T06:34:13;97136.84;;;2.15;82.72
75312;BME280;63906;55.686;37.532;2023-02-26T06:39:14;97138.44;;;2.29;83.13
75312;BME280;63906;55.686;37.532;2023-02-26T06:44:14;97143.22;;;2.06;81.99
75312;BME280;63906;55.686;37.532;2023-02-26T06:49:15;97157.38;;;2.10;82.69
75312;BME280;63906;55.686;37.532;2023-02-26T06:54:15;97181.59;;;2.24;82.14
75312;BME280;63906;55.686;37.532;2023-02-26T06:59:16;97192.97;;;2.29;82.72
75312;BME280;63906;55.686;37.532;2023-02-26T07:04:16;97180.59;;;2.38;82.54
75312;BME280;63906;55.686;37.532;2023-02-26T07:09:17;97206.16;;;2.41;82.65
75312;BME280;63906;55.686;37.532;2023-02-26T07:14:19;97203.75;;;2.26;80.33
75312;BME280;63906;55.686;37.532;2023-02-26T07:19:19;97211.91;;;2.30;81.02
75312;BME280;63906;55.686;37.532;2023-02-26T07:24:21;97208.59;;;2.49;80.17
75312;BME280;63906;55.686;37.532;2023-02-26T07:29:22;97226.19;;;2.74;80.93
75312;BME280;63906;55.686;37.532;2023-02-26T07:34:22;97225.53;;;2.45;78.43
75312;BME280;63906;55.686;37.532;2023-02-26T07:39:23;97210.19;;;2.63;80.75
75312;BME280;63906;55.686;37.532;2023-02-26T07:44:23;97207.81;;;2.95;78.30
75312;BME280;63906;55.686;37.532;2023-02-26T07:49:24;97240.19;;;2.86;78.94
75312;BME280;63906;55.686;37.532;2023-02-26T07:54:24;97235.38;;;2.63;77.72
75312;BME280;63906;55.686;37.532;2023-02-26T07:59:25;97239.38;;;2.85;77.45
75312;BME280;63906;55.686;37.532;2023-02-26T08:04:26;97260.13;;;2.79;77.99
75312;BME280;63906;55.686;37.532;2023-02-26T08:09:26;97246.97;;;2.80;78.16
75312;BME280;63906;55.686;37.532;2023-02-26T08:14:27;97261.56;;;2.88;79.01
75312;BME280;63906;55.686;37.532;2023-02-26T08:19:27;97246.34;;;2.98;75.64
75312;BME280;63906;55.686;37.532;2023-02-26T08:24:28;97274.94;;;3.51;75.26
75312;BME280;63906;55.686;37.532;2023-02-26T08:29:28;97260.31;;;3.63;75.93
75312;BME280;63906;55.686;37.532;2023-02-26T08:34:29;97296.63;;;4.03;70.48
75312;BME280;63906;55.686;37.532;2023-02-26T08:39:29;97308.53;;;3.59;69.43
75312;BME280;63906;55.686;37.532;2023-02-26T08:44:34;97291.53;;;3.63;73.76
75312;BME280;63906;55.686;37.532;2023-02-26T08:49:35;97333.34;;;3.68;69.22
75312;BME280;63906;55.686;37.532;2023-02-26T08:54:35;97338.69;;;4.00;70.80
75312;BME280;63906;55.686;37.532;2023-02-26T08:59:36;97285.97;;;3.00;68.21
75312;BME280;63906;55.686;37.532;2023-02-26T09:04:36;97346.28;;;2.82;71.24
75312;BME280;63906;55.686;37.532;2023-02-26T09:09:37;97345.84;;;2.72;74.77
75312;BME280;63906;55.686;37.532;2023-02-26T09:14:37;97383.06;;;2.86;75.65
75312;BME280;63906;55.686;37.532;2023-02-26T09:19:38;97348.16;;;2.47;76.02
75312;BME280;63906;55.686;37.532;2023-02-26T09:24:38;97348.44;;;2.65;70.94
75312;BME280;63906;55.686;37.532;2023-02-26T09:29:39;97394.28;;;2.93;72.12
75312;BME280;63906;55.686;37.532;2023-02-26T09:34:40;97384.06;;;2.98;69.09
75312;BME280;63906;55.686;37.532;2023-02-26T09:39:40;97379.28;;;2.95;71.04
75312;BME280;63906;55.686;37.532;2023-02-26T09:44:44;97399.09;;;3.03;74.03
75312;BME280;63906;55.686;37.532;2023-02-26T09:54:52;97406.31;;;3.07;73.70
75312;BME280;63906;55.686;37.532;2023-02-26T09:59:53;97421.41;;;2.77;73.40
75312;BME280;63906;55.686;37.532;2023-02-26T10:10:40;97423.13;;;3.11;71.07
75312;BME280;63906;55.686;37.532;2023-02-26T10:15:45;97446.78;;;3.43;70.92
75312;BME280;63906;55.686;37.532;2023-02-26T10:26:03;97458.78;;;3.44;69.32
75312;BME280;63906;55.686;37.532;2023-02-26T10:31:12;97439.47;;;2.92;70.16
75312;BME280;63906;55.686;37.532;2023-02-26T10:42:21;97460.31;;;3.18;67.69
75312;BME280;63906;55.686;37.532;2023-02-26T10:52:32;97449.59;;;3.48;68.97
75312;BME280;63906;55.686;37.532;2023-02-26T10:57:41;97452.78;;;3.50;67.23
75312;BME280;63906;55.686;37.532;2023-02-26T11:02:45;97456.19;;;3.44;67.54
75312;BME280;63906;55.686;37.532;2023-02-26T11:07:53;97482.94;;;3.31;67.48
75312;BME280;63906;55.686;37.532;2023-02-26T11:12:54;97456.19;;;3.44;69.67
75312;BME280;63906;55.686;37.532;2023-02-26T11:17:56;97476.25;;;4.16;67.68
75312;BME280;63906;55.686;37.532;2023-02-26T11:22:59;97491.63;;;4.31;62.73
75312;BME280;63906;55.686;37.532;2023-02-26T11:28:04;97492.03;;;4.21;66.84
75312;BME280;63906;55.686;37.532;2023-02-26T11:33:21;97481.63;;;4.01;67.16
75312;BME280;63906;55.686;37.532;2023-02-26T11:38:25;97496.66;;;4.13;69.23
75312;BME280;63906;55.686;37.532;2023-02-26T11:43:40;97485.03;;;3.69;62.79
75312;BME280;63906;55.686;37.532;2023-02-26T11:48:45;97474.84;;;3.81;65.06
75312;BME280;63906;55.686;37.532;2023-02-26T11:53:57;97474.84;;;4.00;67.42
75312;BME280;63906;55.686;37.532;2023-02-26T11:59:12;97481.63;;;3.95;67.08
75312;BME280;63906;55.686;37.532;2023-02-26T12:04:21;97507.25;;;4.38;68.25
75312;BME280;63906;55.686;37.532;2023-02-26T12:09:24;97478.41;;;4.32;62.37
75312;BME280;63906;55.686;37.532;2023-02-26T12:35:48;97549.34;;;2.30;72.17
75312;BME280;63906;55.686;37.532;2023-02-26T12:41:01;97567.41;;;2.16;74.71
75312;BME280;63906;55.686;37.532;2023-02-26T13:02:27;97593.91;;;2.05;74.31
75312;BME280;63906;55.686;37.532;2023-02-26T13:13:34;97609.44;;;1.84;72.83
75312;BME280;63906;55.686;37.532;2023-02-26T13:18:19;97639.47;;;1.93;70.83
75312;BME280;63906;55.686;37.532;2023-02-26T13:23:27;97628.84;;;1.88;70.88
75312;BME280;63906;55.686;37.532;2023-02-26T13:33:39;97635.50;;;1.76;68.07
75312;BME280;63906;55.686;37.532;2023-02-26T13:49:33;97675.50;;;1.22;69.60
75312;BME280;63906;55.686;37.532;2023-02-26T13:54:44;97661.97;;;0.97;72.56
75312;BME280;63906;55.686;37.532;2023-02-26T14:04:59;97683.56;;;0.75;69.63
75312;BME280;63906;55.686;37.532;2023-02-26T14:10:02;97719.94;;;0.59;65.91
75312;BME280;63906;55.686;37.532;2023-02-26T14:15:28;97715.25;;;0.62;66.47
75312;BME280;63906;55.686;37.532;2023-02-26T14:20:33;97730.50;;;0.72;64.43
75312;BME280;63906;55.686;37.532;2023-02-26T14:25:44;97753.22;;;0.62;66.66
75312;BME280;63906;55.686;37.532;2023-02-26T14:30:49;97730.09;;;0.37;67.51
75312;BME280;63906;55.686;37.532;2023-02-26T14:35:50;97733.28;;;0.47;68.40
75312;BME280;63906;55.686;37.532;2023-02-26T14:41:28;97762.97;;;0.60;67.23
75312;BME280;63906;55.686;37.532;2023-02-26T14:46:30;97774.47;;;0.57;63.83
75312;BME280;63906;55.686;37.532;2023-02-26T14:51:53;97758.72;;;0.44;63.74
75312;BME280;63906;55.686;37.532;2023-02-26T14:57:09;97772.41;;;0.21;62.71
75312;BME280;63906;55.686;37.532;2023-02-26T15:17:46;97826.88;;;-0.11;67.25
75312;BME280;63906;55.686;37.532;2023-02-26T15:23:14;97808.47;;;-0.16;68.80
75312;BME280;63906;55.686;37.532;2023-02-26T15:28:25;97800.53;;;-0.15;68.97
75312;BME280;63906;55.686;37.532;2023-02-26T15:33:31;97846.75;;;-0.20;70.53
75312;BME280;63906;55.686;37.532;2023-02-26T15:38:54;97849.03;;;-0.33;71.07
75312;BME280;63906;55.686;37.532;2023-02-26T15:44:05;97908.97;;;-0.21;73.00
75312;BME280;63906;55.686;37.532;2023-02-26T15:49:12;97870.06;;;-0.36;70.62
75312;BME280;63906;55.686;37.532;2023-02-26T15:54:17;97892.00;;;-0.32;71.40
75312;BME280;63906;55.686;37.532;2023-02-26T15:59:23;97904.31;;;-0.42;72.12
75312;BME280;63906;55.686;37.532;2023-02-26T16:04:25;97906.25;;;-0.52;70.84
75312;BME280;63906;55.686;37.532;2023-02-26T16:09:28;97910.44;;;-0.35;70.82
75312;BME280;63906;55.686;37.532;2023-02-26T16:14:33;97930.78;;;-0.57;70.77
75312;BME280;63906;55.686;37.532;2023-02-26T16:19:44;97887.03;;;-0.58;72.79
75312;BME280;63906;55.686;37.532;2023-02-26T16:24:48;97957.44;;;-0.56;74.35
75312;BME280;63906;55.686;37.532;2023-02-26T16:29:51;97943.06;;;-0.59;72.75
75312;BME280;63906;55.686;37.532;2023-02-26T16:34:56;97961.50;;;-0.53;73.39
75312;BME280;63906;55.686;37.532;2023-02-26T16:40:21;97974.03;;;-0.75;72.12
75312;BME280;63906;55.686;37.532;2023-02-26T16:50:35;98009.28;;;-0.66;71.04
75312;BME280;63906;55.686;37.532;2023-02-26T16:55:37;98007.03;;;-0.61;69.21
75312;BME280;63906;55.686;37.532;2023-02-26T17:00:43;98011.22;;;-0.68;68.67
75312;BME280;63906;55.686;37.532;2023-02-26T17:06:04;98030.56;;;-0.72;69.42
75312;BME280;63906;55.686;37.532;2023-02-26T17:11:07;98027.78;;;-0.87;69.21
75312;BME280;63906;55.686;37.532;2023-02-26T17:16:11;98020.75;;;-1.11;67.32
75312;BME280;63906;55.686;37.532;2023-02-26T17:21:12;98037.72;;;-1.00;69.96
75312;BME280;63906;55.686;37.532;2023-02-26T17:26:12;98051.00;;;-0.95;68.29
75312;BME280;63906;55.686;37.532;2023-02-26T17:31:13;98039.44;;;-1.17;68.44
75312;BME280;63906;55.686;37.532;2023-02-26T17:36:15;98070.69;;;-0.94;67.56
75312;BME280;63906;55.686;37.532;2023-02-26T17:41:20;98072.19;;;-1.17;67.69
75312;BME280;63906;55.686;37.532;2023-02-26T17:46:21;98082.19;;;-1.22;68.27
75312;BME280;63906;55.686;37.532;2023-02-26T17:51:22;98079.88;;;-1.25;67.95
75312;BME280;63906;55.686;37.532;2023-02-26T18:01:24;98047.31;;;-1.52;66.51
75312;BME280;63906;55.686;37.532;2023-02-26T18:06:33;98092.34;;;-1.21;66.31
75312;BME280;63906;55.686;37.532;2023-02-26T18:11:35;98083.34;;;-1.17;65.81
75312;BME280;63906;55.686;37.532;2023-02-26T18:16:42;98108.84;;;-1.14;64.36
75312;BME280;63906;55.686;37.532;2023-02-26T18:21:46;98130.19;;;-1.03;64.53
75312;BME280;63906;55.686;37.532;2023-02-26T18:26:46;98148.06;;;-1.10;63.91
75312;BME280;63906;55.686;37.532;2023-02-26T18:31:47;98129.59;;;-1.23;64.67
75312;BME280;63906;55.686;37.532;2023-02-26T18:36:47;98180.44;;;-0.98;63.79
75312;BME280;63906;55.686;37.532;2023-02-26T18:41:48;98140.75;;;-1.23;64.46
75312;BME280;63906;55.686;37.532;2023-02-26T18:46:49;98174.41;;;-1.24;64.70
75312;BME280;63906;55.686;37.532;2023-02-26T18:51:49;98194.03;;;-1.14;63.03
75312;BME280;63906;55.686;37.532;2023-02-26T18:56:50;98182.44;;;-1.36;63.39
75312;BME280;63906;55.686;37.532;2023-02-26T19:01:50;98202.88;;;-1.42;63.67
75312;BME280;63906;55.686;37.532;2023-02-26T19:06:51;98187.44;;;-1.70;65.06
75312;BME280;63906;55.686;37.532;2023-02-26T19:11:52;98210.06;;;-1.64;64.74
75312;BME280;63906;55.686;37.532;2023-02-26T19:16:53;98256.16;;;-1.51;64.10
75312;BME280;63906;55.686;37.532;2023-02-26T19:21:54;98246.25;;;-1.55;65.43
75312;BME280;63906;55.686;37.532;2023-02-26T19:26:55;98240.16;;;-1.54;63.82
75312;BME280;63906;55.686;37.532;2023-02-26T19:31:59;98271.41;;;-1.57;64.12
75312;BME280;63906;55.686;37.532;2023-02-26T19:37:00;98259.66;;;-1.70;64.04
75312;BME280;63906;55.686;37.532;2023-02-26T19:42:00;98276.50;;;-1.66;64.35
75312;BME280;63906;55.686;37.532;2023-02-26T19:47:01;98310.03;;;-1.66;63.27
75312;BME280;63906;55.686;37.532;2023-02-26T19:52:02;98260.41;;;-1.77;64.21
75312;BME280;63906;55.686;37.532;2023-02-26T19:57:02;98285.28;;;-1.58;64.70
75312;BME280;63906;55.686;37.532;2023-02-26T20:02:03;98289.19;;;-1.82;65.00
75312;BME280;63906;55.686;37.532;2023-02-26T20:07:04;98286.66;;;-1.64;64.30
75312;BME280;63906;55.686;37.532;2023-02-26T20:12:05;98306.66;;;-1.48;64.07
75312;BME280;63906;55.686;37.532;2023-02-26T20:17:06;98314.84;;;-1.53;64.18
75312;BME280;63906;55.686;37.532;2023-02-26T20:22:07;98366.28;;;-1.51;63.82
75312;BME280;63906;55.686;37.532;2023-02-26T20:27:07;98357.34;;;-1.57;62.70
75312;BME280;63906;55.686;37.532;2023-02-26T20:32:08;98314.94;;;-1.72;62.86
75312;BME280;63906;55.686;37.532;2023-02-26T20:37:09;98341.56;;;-1.72;63.29
75312;BME280;63906;55.686;37.532;2023-02-26T20:42:10;98353.97;;;-1.57;63.46
75312;BME280;63906;55.686;37.532;2023-02-26T20:47:10;98386.44;;;-1.55;64.22
75312;BME280;63906;55.686;37.532;2023-02-26T20:52:11;98365.81;;;-1.65;64.13
75312;BME280;63906;55.686;37.532;2023-02-26T20:57:11;98382.91;;;-1.64;63.48
75312;BME280;63906;55.686;37.532;2023-02-26T21:02:12;98379.25;;;-1.61;63.83
75312;BME280;63906;55.686;37.532;2023-02-26T21:07:14;98398.75;;;-1.49;63.64
75312;BME280;63906;55.686;37.532;2023-02-26T21:12:24;98413.88;;;-1.64;64.60
75312;BME280;63906;55.686;37.532;2023-02-26T21:17:25;98435.38;;;-1.45;64.12
75312;BME280;63906;55.686;37.532;2023-02-26T21:22:26;98453.63;;;-1.56;64.38
75312;BME280;63906;55.686;37.532;2023-02-26T21:27:26;98414.06;;;-1.75;65.17
75312;BME280;63906;55.686;37.532;2023-02-26T21:32:27;98481.63;;;-1.62;64.81
75312;BME280;63906;55.686;37.532;2023-02-26T21:37:28;98497.88;;;-1.51;64.15
75312;BME280;63906;55.686;37.532;2023-02-26T21:42:28;98484.91;;;-1.69;64.67
75312;BME280;63906;55.686;37.532;2023-02-26T21:47:29;98487.63;;;-1.71;65.09
75312;BME280;63906;55.686;37.532;2023-02-26T21:52:30;98464.31;;;-1.79;64.75
75312;BME280;63906;55.686;37.532;2023-02-26T21:57:30;98494.16;;;-1.67;64.44
75312;BME280;63906;55.686;37.532;2023-02-26T22:02:31;98491.72;;;-1.78;65.14
75312;BME280;63906;55.686;37.532;2023-02-26T22:07:31;98516.28;;;-1.74;65.02
75312;BME280;63906;55.686;37.532;2023-02-26T22:12:32;98518.69;;;-1.63;63.38
75312;BME280;63906;55.686;37.532;2023-02-26T22:17:33;98527.28;;;-1.72;64.80
75312;BME280;63906;55.686;37.532;2023-02-26T22:22:33;98545.47;;;-1.73;64.51
75312;BME280;63906;55.686;37.532;2023-02-26T22:27:34;98557.16;;;-1.79;64.33
75312;BME280;63906;55.686;37.532;2023-02-26T22:32:34;98549.56;;;-2.00;65.33
75312;BME280;63906;55.686;37.532;2023-02-26T22:37:35;98566.66;;;-1.89;65.60
75312;BME280;63906;55.686;37.532;2023-02-26T22:42:35;98592.56;;;-1.81;65.52
75312;BME280;63906;55.686;37.532;2023-02-26T22:47:36;98597.59;;;-1.89;66.21
75312;BME280;63906;55.686;37.532;2023-02-26T22:52:37;98630.47;;;-1.91;65.93
75312;BME280;63906;55.686;37.532;2023-02-26T22:57:38;98630.03;;;-1.86;66.08
75312;BME280;63906;55.686;37.532;2023-02-26T23:02:40;98628.25;;;-2.05;65.78
75312;BME280;63906;55.686;37.532;2023-02-26T23:07:41;98645.09;;;-2.01;66.51
75312;BME280;63906;55.686;37.532;2023-02-26T23:12:43;98659.22;;;-1.96;65.74
75312;BME280;63906;55.686;37.532;2023-02-26T23:17:43;98636.53;;;-2.11;66.40
75312;BME280;63906;55.686;37.532;2023-02-26T23:22:44;98649.03;;;-2.17;66.39
75312;BME280;63906;55.686;37.532;2023-02-26T23:27:45;98671.72;;;-1.91;66.21
75312;BME280;63906;55.686;37.532;2023-02-26T23:32:45;98657.97;;;-2.21;66.72
75312;BME280;63906;55.686;37.532;2023-02-26T23:37:46;98688.09;;;-2.11;65.89
75312;BME280;63906;55.686;37.532;2023-02-26T23:42:46;98679.81;;;-2.15;65.92
75312;BME280;63906;55.686;37.532;2023-02-26T23:47:47;98704.25;;;-2.09;66.15
75312;BME280;63906;55.686;37.532;2023-02-26T23:52:48;98715.78;;;-2.13;65.65
75312;BME280;63906;55.686;37.532;2023-02-26T23:57:49;98721.59;;;-2.11;66.24
